Time;durP1;ratioP1;P1;durP2;ratioP2;P2;SDS_P1;SDS_P2;PMS_P1;PMS_P2;Temp;Humidity;BMP_temperature;BMP_pressure;BME280_temperature;BME280_humidity;BME280_pressure;Samples;Min_cycle;Max_cycle;Signal;HPM_P1;HPM_P2
2024/01/02 00:02:05;;;;;;;;;4.00;1.00;;;;;7.69;78.95;98668.91;5096139;28;8829;-59
2024/01/02 00:04:33;;;;;;;;;0.00;0.00;;;;;7.70;78.95;98660.81;5095669;28;8806;-58
2024/01/02 00:07:01;;;;;;;;;0.00;0.00;;;;;7.72;79.35;98657.22;5105928;28;8808;-59
2024/01/02 00:09:29;;;;;;;;;0.00;0.00;;;;;7.72;79.24;98636.00;5117663;28;8966;-57
2024/01/02 00:11:56;;;;;;;;;0.00;0.00;;;;;7.74;79.56;98633.09;5103840;28;8838;-60
2024/01/02 00:14:28;;;;;;;;;0.00;0.00;;;;;7.75;78.93;98615.38;5096732;28;8861;-59
2024/01/02 00:16:56;;;;;;;;;0.00;0.00;;;;;7.76;78.94;98609.09;5095125;28;8837;-60
2024/01/02 00:19:24;;;;;;;;;0.00;0.00;;;;;7.76;78.83;98591.38;5076760;28;8824;-59
2024/01/02 00:21:52;;;;;;;;;0.00;0.00;;;;;7.77;79.46;98593.06;5076222;28;8945;-58
2024/01/02 00:24:20;;;;;;;;;0.00;0.00;;;;;7.79;79.03;98593.78;5106312;28;8833;-58
2024/01/02 00:26:50;;;;;;;;;0.00;0.00;;;;;7.81;78.81;98590.97;5116809;28;8946;-60
2024/01/02 00:29:18;;;;;;;;;0.00;0.00;;;;;7.82;78.84;98576.75;5117001;28;8843;-59
2024/01/02 00:31:46;;;;;;;;;0.00;0.00;;;;;7.83;78.99;98575.78;5117241;28;8896;-58
2024/01/02 00:34:13;;;;;;;;;0.50;0.50;;;;;7.84;79.04;98583.56;5107477;28;8823;-59
2024/01/02 00:36:45;;;;;;;;;0.00;0.00;;;;;7.84;79.03;98557.06;5075339;28;8850;-57
2024/01/02 00:39:13;;;;;;;;;0.25;0.25;;;;;7.86;79.23;98549.84;5076012;28;8905;-60
2024/01/02 00:41:42;;;;;;;;;0.00;0.00;;;;;7.87;79.00;98545.38;5076271;28;9505;-60
2024/01/02 00:44:09;;;;;;;;;0.00;0.00;;;;;7.88;79.18;98534.63;5076358;28;8847;-60
2024/01/02 00:46:37;;;;;;;;;0.00;0.00;;;;;7.90;79.34;98527.38;5076124;28;8954;-60
2024/01/02 00:49:05;;;;;;;;;0.00;0.00;;;;;7.90;79.35;98527.38;5076344;28;8808;-58
2024/01/02 00:51:33;;;;;;;;;0.00;0.00;;;;;7.90;79.20;98514.13;5076525;28;8917;-59
2024/01/02 00:54:01;;;;;;;;;0.00;0.00;;;;;7.89;79.42;98503.66;5075657;28;8836;-59
2024/01/02 00:56:29;;;;;;;;;1.00;0.00;;;;;7.87;79.50;98495.03;5076096;28;8854;-59
2024/01/02 00:58:57;;;;;;;;;0.00;0.00;;;;;7.87;79.48;98487.91;5076271;28;8877;-59
2024/01/02 01:01:25;;;;;;;;;0.25;0.25;;;;;7.87;79.68;98485.28;5095407;28;8818;-59
2024/01/02 01:03:53;;;;;;;;;0.00;0.00;;;;;7.89;79.34;98475.34;5096534;28;8834;-58
2024/01/02 01:06:21;;;;;;;;;0.00;0.00;;;;;7.90;79.48;98469.06;5096497;28;8814;-57
2024/01/02 01:08:49;;;;;;;;;0.00;0.00;;;;;7.93;79.50;98455.56;5094945;28;8802;-58
2024/01/02 01:11:18;;;;;;;;;0.00;0.00;;;;;7.95;79.39;98453.59;5096896;28;8837;-58
2024/01/02 01:13:46;;;;;;;;;0.00;0.00;;;;;7.97;79.29;98443.69;5096466;28;8834;-58
2024/01/02 01:16:14;;;;;;;;;0.00;0.00;;;;;7.98;79.21;98432.09;5095405;28;9589;-58
2024/01/02 01:18:42;;;;;;;;;0.50;0.00;;;;;8.00;79.14;98432.78;5098710;28;8800;-60
2024/01/02 01:21:10;;;;;;;;;0.00;0.00;;;;;8.03;79.45;98435.16;5106987;28;8826;-57
2024/01/02 01:23:37;;;;;;;;;0.00;0.00;;;;;8.05;79.50;98435.84;5115755;28;8851;-57
2024/01/02 01:26:05;;;;;;;;;0.25;0.25;;;;;8.07;79.73;98409.22;5084331;28;8832;-58
2024/01/02 01:28:33;;;;;;;;;0.00;0.00;;;;;8.10;79.31;98400.94;5075013;28;8910;-58
2024/01/02 01:31:00;;;;;;;;;0.00;0.00;;;;;8.10;79.77;98400.94;5074864;28;8840;-58
2024/01/02 01:33:28;;;;;;;;;0.00;0.00;;;;;8.10;79.33;98385.06;5074939;28;8812;-59
2024/01/02 01:35:56;;;;;;;;;0.00;0.00;;;;;8.10;79.49;98375.28;5074519;28;8842;-59
2024/01/02 01:38:24;;;;;;;;;0.00;0.00;;;;;8.09;79.56;98381.59;5114894;28;8820;-56
2024/01/02 01:40:52;;;;;;;;;0.00;0.00;;;;;8.08;79.50;98371.97;5114109;28;8816;-57
2024/01/02 01:43:20;;;;;;;;;0.00;0.00;;;;;8.06;79.66;98359.81;5087121;28;9501;-59
2024/01/02 01:45:48;;;;;;;;;0.00;0.00;;;;;8.03;79.66;98360.94;5075209;28;8840;-57
2024/01/02 01:48:15;;;;;;;;;0.00;0.00;;;;;8.01;79.65;98352.31;5075436;28;8893;-59
2024/01/02 01:50:43;;;;;;;;;0.00;0.00;;;;;7.96;80.04;98345.75;5075713;28;8955;-57
2024/01/02 01:53:11;;;;;;;;;0.00;0.00;;;;;7.91;80.46;98346.19;5075561;28;8820;-58
2024/01/02 01:55:40;;;;;;;;;0.00;0.00;;;;;7.88;80.44;98343.84;5075217;28;8901;-57
2024/01/02 01:58:08;;;;;;;;;0.00;0.00;;;;;7.84;80.37;98328.38;5074643;28;8878;-58
2024/01/02 02:00:36;;;;;;;;;0.00;0.00;;;;;7.79;80.78;98320.03;5075700;28;8832;-57
2024/01/02 02:03:03;;;;;;;;;0.00;0.00;;;;;7.74;80.87;98317.81;5075730;28;8821;-58
2024/01/02 02:05:30;;;;;;;;;0.00;0.00;;;;;7.68;81.37;98311.41;5075568;28;8836;-57
2024/01/02 02:07:59;;;;;;;;;0.00;0.00;;;;;7.62;81.34;98296.94;5075575;28;8848;-57
2024/01/02 02:10:27;;;;;;;;;0.00;0.00;;;;;7.57;81.63;98303.66;5075231;28;8864;-57
2024/01/02 02:12:54;;;;;;;;;0.00;0.00;;;;;7.53;81.50;98291.66;5077824;28;8835;-57
2024/01/02 02:15:22;;;;;;;;;0.00;0.00;;;;;7.49;81.57;98279.69;5094834;28;8825;-58
2024/01/02 02:17:50;;;;;;;;;0.00;0.00;;;;;7.47;81.92;98281.63;5093793;28;8886;-59
2024/01/02 02:20:18;;;;;;;;;0.00;0.00;;;;;7.43;82.02;98272.31;5093671;28;8828;-58
2024/01/02 02:22:45;;;;;;;;;0.00;0.00;;;;;7.40;81.83;98259.34;5094185;28;8884;-59
2024/01/02 02:25:13;;;;;;;;;0.00;0.00;;;;;7.37;82.01;98251.72;5094746;28;8826;-57
2024/01/02 02:27:41;;;;;;;;;0.00;0.00;;;;;7.34;82.33;98246.72;5094881;28;8953;-57
2024/01/02 02:30:08;;;;;;;;;0.00;0.00;;;;;7.32;82.42;98243.34;5096789;28;8852;-59
2024/01/02 02:32:36;;;;;;;;;0.00;0.00;;;;;7.31;82.88;98233.75;5098574;28;8837;-57
2024/01/02 02:35:04;;;;;;;;;0.00;0.00;;;;;7.29;82.84;98230.41;5099024;28;8914;-58
2024/01/02 02:37:32;;;;;;;;;0.00;0.00;;;;;7.26;82.51;98218.28;5098523;28;8961;-59
2024/01/02 02:40:00;;;;;;;;;0.00;0.00;;;;;7.25;82.88;98203.41;5098692;28;8814;-58
2024/01/02 02:42:28;;;;;;;;;0.00;0.00;;;;;7.25;83.09;98199.91;5099137;28;8864;-57
2024/01/02 02:44:55;;;;;;;;;0.00;0.00;;;;;7.24;83.34;98204.38;5098613;28;8867;-59
2024/01/02 02:47:23;;;;;;;;;0.00;0.00;;;;;7.22;82.64;98189.63;5097993;28;8854;-57
2024/01/02 02:49:52;;;;;;;;;0.00;0.00;;;;;7.21;83.38;98191.41;5098494;28;8937;-59
2024/01/02 02:52:20;;;;;;;;;0.00;0.00;;;;;7.20;83.19;98167.75;5098382;28;8937;-58
2024/01/02 02:54:48;;;;;;;;;0.00;0.00;;;;;7.19;83.58;98155.50;5098369;28;8818;-58
2024/01/02 02:57:15;;;;;;;;;0.00;0.00;;;;;7.18;83.48;98164.41;5101762;28;8818;-59
2024/01/02 02:59:43;;;;;;;;;0.00;0.00;;;;;7.16;83.74;98139.91;5098824;28;8844;-58
2024/01/02 03:02:11;;;;;;;;;0.00;0.00;;;;;7.14;83.68;98136.56;5098881;28;8838;-59
2024/01/02 03:04:39;;;;;;;;;0.00;0.00;;;;;7.13;84.03;98134.91;5107014;28;8975;-58
2024/01/02 03:07:07;;;;;;;;;0.00;0.00;;;;;7.10;83.86;98108.72;5111049;28;8978;-57
2024/01/02 03:09:35;;;;;;;;;0.00;0.00;;;;;7.08;84.00;98108.03;5105664;28;8946;-57
2024/01/02 03:12:03;;;;;;;;;0.00;0.00;;;;;7.07;83.74;98109.88;5117964;28;8958;-58
2024/01/02 03:14:30;;;;;;;;;0.00;0.00;;;;;7.05;83.47;98081.88;5117804;28;8832;-56
2024/01/02 03:16:58;;;;;;;;;0.00;0.00;;;;;7.04;83.96;98085.50;5117725;28;8827;-59
2024/01/02 03:19:26;;;;;;;;;0.00;0.00;;;;;7.01;84.20;98085.78;5117788;28;8892;-57
2024/01/02 03:21:54;;;;;;;;;0.00;0.00;;;;;6.99;84.19;98074.50;5102482;28;8923;-59
2024/01/02 03:24:22;;;;;;;;;0.00;0.00;;;;;6.96;84.33;98057.13;5091991;28;8831;-57
2024/01/02 03:26:49;;;;;;;;;0.00;0.00;;;;;6.96;84.51;98051.00;5077046;28;8870;-57
2024/01/02 03:29:17;;;;;;;;;0.00;0.00;;;;;6.95;84.59;98044.88;5077548;28;9544;-58
2024/01/02 03:31:45;;;;;;;;;0.00;0.00;;;;;6.94;84.39;98034.44;5077461;28;8835;-59
2024/01/02 03:34:12;;;;;;;;;0.00;0.00;;;;;6.93;84.59;98030.13;5077996;28;9505;-58
2024/01/02 03:36:40;;;;;;;;;0.00;0.00;;;;;6.90;84.63;98018.00;5077819;28;8917;-58
2024/01/02 03:39:08;;;;;;;;;0.00;0.00;;;;;6.89;84.76;98012.88;5077573;28;8836;-58
2024/01/02 03:41:35;;;;;;;;;0.00;0.00;;;;;6.88;84.09;98009.41;5077513;28;8855;-59
2024/01/02 03:44:03;;;;;;;;;0.00;0.00;;;;;6.88;84.69;97976.81;5077402;28;8856;-58
2024/01/02 03:46:31;;;;;;;;;0.00;0.00;;;;;6.86;85.29;97974.31;5077386;28;8839;-59
2024/01/02 03:48:59;;;;;;;;;0.00;0.00;;;;;6.86;85.06;97976.13;5077362;28;8808;-59
2024/01/02 03:51:27;;;;;;;;;0.00;0.00;;;;;6.85;84.71;97966.53;5077545;28;8828;-59
2024/01/02 03:53:55;;;;;;;;;0.00;0.00;;;;;6.83;84.98;97948.16;5077801;28;8820;-59
2024/01/02 03:56:23;;;;;;;;;0.00;0.00;;;;;6.83;85.07;97947.34;5077580;28;8808;-59
2024/01/02 03:58:51;;;;;;;;;0.00;0.00;;;;;6.81;84.57;97944.03;5094952;28;8831;-59
2024/01/02 04:01:18;;;;;;;;;0.00;0.00;;;;;6.80;84.58;97935.25;5097729;28;8830;-59
2024/01/02 04:03:46;;;;;;;;;0.00;0.00;;;;;6.79;85.29;97946.81;5095995;28;8822;-60
2024/01/02 04:06:14;;;;;;;;;0.00;0.00;;;;;6.79;85.06;97924.78;5095818;28;8832;-59
2024/01/02 04:08:42;;;;;;;;;0.00;0.00;;;;;6.79;85.25;97914.22;5096160;28;8829;-59
2024/01/02 04:11:13;;;;;;;;;0.00;0.00;;;;;6.79;85.32;97895.69;5095528;28;8955;-59
2024/01/02 04:13:41;;;;;;;;;0.00;0.00;;;;;6.80;85.16;97894.72;5097141;28;8861;-60
2024/01/02 04:16:08;;;;;;;;;0.00;0.00;;;;;6.80;85.09;97876.19;5095975;28;8803;-60
2024/01/02 04:18:36;;;;;;;;;0.00;0.00;;;;;6.81;85.51;97857.56;5096843;28;8834;-59
2024/01/02 04:21:04;;;;;;;;;0.00;0.00;;;;;6.83;85.74;97846.81;5096661;28;8814;-59
2024/01/02 04:23:31;;;;;;;;;0.00;0.00;;;;;6.84;85.31;97843.19;5096439;28;8826;-59
2024/01/02 04:25:59;;;;;;;;;0.00;0.00;;;;;6.85;85.51;97821.91;5095879;28;8822;-59
2024/01/02 04:28:27;;;;;;;;;0.00;0.00;;;;;6.88;85.04;97812.81;5096129;28;8854;-59
2024/01/02 04:30:55;;;;;;;;;0.00;0.00;;;;;6.90;85.45;97822.25;5096054;28;8824;-59
2024/01/02 04:33:23;;;;;;;;;0.00;0.00;;;;;6.92;85.56;97806.25;5096580;28;8853;-59
2024/01/02 04:35:51;;;;;;;;;0.00;0.00;;;;;6.95;85.62;97792.69;5095864;28;8875;-59
2024/01/02 04:38:19;;;;;;;;;0.00;0.00;;;;;6.96;85.12;97771.38;5096651;28;9585;-60
2024/01/02 04:40:47;;;;;;;;;0.00;0.00;;;;;6.99;85.33;97772.91;5096260;28;8829;-58
2024/01/02 04:43:14;;;;;;;;;0.00;0.00;;;;;7.01;85.53;97771.78;5096575;28;8845;-59
2024/01/02 04:45:42;;;;;;;;;0.00;0.00;;;;;7.03;85.54;97763.66;5096266;28;8833;-59
2024/01/02 04:48:10;;;;;;;;;0.00;0.00;;;;;7.05;84.97;97769.66;5096520;28;8826;-59
2024/01/02 04:50:38;;;;;;;;;0.00;0.00;;;;;7.07;85.21;97751.81;5095350;28;8806;-59
2024/01/02 04:53:06;;;;;;;;;0.00;0.00;;;;;7.10;85.25;97746.19;5095573;28;8830;-59
2024/01/02 04:55:34;;;;;;;;;0.00;0.00;;;;;7.14;85.49;97743.06;5099190;28;8940;-59
2024/01/02 04:58:02;;;;;;;;;0.00;0.00;;;;;7.17;85.33;97707.53;5095643;28;8952;-59
2024/01/02 05:00:30;;;;;;;;;0.00;0.00;;;;;7.20;85.21;97709.88;5094404;28;8838;-59
2024/01/02 05:02:58;;;;;;;;;0.00;0.00;;;;;7.22;85.79;97695.53;5098433;28;8824;-59
2024/01/02 05:05:26;;;;;;;;;0.00;0.00;;;;;7.27;85.38;97697.69;5111126;28;8812;-58
2024/01/02 05:07:53;;;;;;;;;0.00;0.00;;;;;7.31;85.08;97699.03;5082567;28;8943;-58
2024/01/02 05:10:22;;;;;;;;;0.00;0.00;;;;;7.33;85.91;97681.16;5116491;28;8843;-59
2024/01/02 05:12:50;;;;;;;;;0.00;0.00;;;;;7.36;85.52;97664.97;5115573;28;8820;-60
2024/01/02 05:15:18;;;;;;;;;0.00;0.00;;;;;7.39;85.36;97657.56;5115309;28;8886;-59
2024/01/02 05:17:46;;;;;;;;;0.00;0.00;;;;;7.42;86.12;97677.59;5115701;28;8852;-59
2024/01/02 05:20:14;;;;;;;;;0.00;0.00;;;;;7.44;85.57;97676.41;5112547;28;8826;-58
2024/01/02 05:22:42;;;;;;;;;0.00;0.00;;;;;7.47;85.80;97672.63;5095463;28;8814;-58
2024/01/02 05:25:10;;;;;;;;;0.00;0.00;;;;;7.48;86.16;97663.69;5075879;28;8877;-56
2024/01/02 05:27:38;;;;;;;;;0.00;0.00;;;;;7.49;85.90;97655.59;5076059;28;8835;-59
2024/01/02 05:30:06;;;;;;;;;0.00;0.00;;;;;7.49;85.63;97609.78;5074362;28;8844;-59
2024/01/02 05:32:33;;;;;;;;;0.00;0.00;;;;;7.53;85.95;97609.28;5074760;28;8978;-57
2024/01/02 05:35:02;;;;;;;;;0.00;0.00;;;;;7.55;86.25;97648.84;5075687;28;8832;-58
2024/01/02 05:37:29;;;;;;;;;0.00;0.00;;;;;7.58;85.97;97672.38;5075683;28;8862;-59
2024/01/02 05:39:57;;;;;;;;;0.00;0.00;;;;;7.59;86.06;97644.91;5076308;28;8818;-57
2024/01/02 05:42:25;;;;;;;;;0.00;0.00;;;;;7.61;85.95;97627.84;5075830;28;8836;-56
2024/01/02 05:44:52;;;;;;;;;0.00;0.00;;;;;7.64;86.28;97590.44;5075321;28;8870;-58
2024/01/02 05:47:20;;;;;;;;;0.00;0.00;;;;;7.69;86.17;97670.25;5074955;28;8828;-58
2024/01/02 05:49:48;;;;;;;;;0.00;0.00;;;;;7.72;85.93;97652.22;5075135;28;8824;-57
2024/01/02 05:52:16;;;;;;;;;0.00;0.00;;;;;7.77;85.94;97647.25;5074621;28;8832;-57
2024/01/02 05:54:43;;;;;;;;;0.00;0.00;;;;;7.80;85.88;97620.47;5074712;28;8858;-57
2024/01/02 05:57:11;;;;;;;;;0.00;0.00;;;;;7.83;86.46;97633.38;5080680;28;8822;-57
2024/01/02 05:59:40;;;;;;;;;0.00;0.00;;;;;7.86;86.37;97616.34;5094373;28;9542;-57
2024/01/02 06:02:08;;;;;;;;;0.00;0.00;;;;;7.88;86.50;97623.13;5094904;28;8830;-57
2024/01/02 06:04:36;;;;;;;;;0.00;0.00;;;;;7.90;86.21;97618.50;5095491;28;8833;-56
2024/01/02 06:07:04;;;;;;;;;0.00;0.00;;;;;7.93;86.32;97625.28;5098725;28;8848;-58
2024/01/02 06:09:32;;;;;;;;;0.00;0.00;;;;;7.97;86.29;97613.38;5098069;28;8836;-58
2024/01/02 06:11:59;;;;;;;;;0.00;0.00;;;;;8.00;86.83;97599.81;5100244;28;8826;-56
2024/01/02 06:14:27;;;;;;;;;0.00;0.00;;;;;8.03;86.49;97610.91;5098755;28;8835;-59
2024/01/02 06:16:56;;;;;;;;;0.00;0.00;;;;;8.07;86.38;97614.88;5089439;28;8865;-58
2024/01/02 06:19:23;;;;;;;;;0.00;0.00;;;;;8.10;86.62;97619.88;5097174;28;8837;-57
2024/01/02 06:21:51;;;;;;;;;0.00;0.00;;;;;8.16;86.25;97629.81;5098251;28;8963;-58
2024/01/02 06:24:19;;;;;;;;;0.00;0.00;;;;;8.20;86.26;97633.81;5097764;28;8848;-57
2024/01/02 06:26:47;;;;;;;;;0.00;0.00;;;;;8.25;86.12;97622.72;5098358;28;8838;-58
2024/01/02 06:29:15;;;;;;;;;0.00;0.00;;;;;8.29;86.64;97598.34;5102284;28;8818;-57
2024/01/02 06:31:43;;;;;;;;;0.00;0.00;;;;;8.32;86.17;97608.66;5095959;28;8820;-57
2024/01/02 06:34:11;;;;;;;;;0.00;0.00;;;;;8.37;87.09;97608.97;5082293;28;8833;-58
2024/01/02 06:36:39;;;;;;;;;0.00;0.00;;;;;8.43;86.33;97621.56;5118991;28;8808;-57
2024/01/02 06:39:07;;;;;;;;;0.00;0.00;;;;;8.50;86.28;97621.75;5117946;28;8847;-57
2024/01/02 06:41:35;;;;;;;;;0.00;0.00;;;;;8.55;86.13;97616.75;5117872;28;8839;-57
2024/01/02 06:44:03;;;;;;;;;0.00;0.00;;;;;8.61;86.36;97621.41;5117055;28;8870;-57
2024/01/02 06:46:30;;;;;;;;;0.00;0.00;;;;;8.64;85.62;97626.38;5114008;28;8948;-56
2024/01/02 06:48:58;;;;;;;;;0.00;0.00;;;;;8.67;85.69;97608.28;5086916;28;8945;-58
2024/01/02 06:51:28;;;;;;;;;0.00;0.00;;;;;8.69;86.35;97608.97;5078214;28;8839;-58
2024/01/02 06:53:55;;;;;;;;;0.00;0.00;;;;;8.72;86.10;97619.25;5078391;28;8851;-57
2024/01/02 06:56:23;;;;;;;;;0.00;0.00;;;;;8.77;86.36;97619.56;5078267;28;8866;-58
2024/01/02 06:58:51;;;;;;;;;0.00;0.00;;;;;8.80;86.44;97639.66;5078238;28;8871;-58
2024/01/02 07:01:18;;;;;;;;;0.00;0.00;;;;;8.82;86.27;97659.69;5078190;28;8832;-57
2024/01/02 07:03:48;;;;;;;;;0.00;0.00;;;;;8.83;85.85;97642.75;5078379;28;9491;-58
2024/01/02 07:06:17;;;;;;;;;0.00;0.00;;;;;8.86;86.53;97644.25;5078667;28;8824;-59
2024/01/02 07:08:45;;;;;;;;;0.00;0.00;;;;;8.89;86.45;97654.56;5077831;28;8824;-58
2024/01/02 07:11:13;;;;;;;;;0.00;0.00;;;;;8.91;86.30;97648.09;5078017;28;8909;-57
2024/01/02 07:13:41;;;;;;;;;0.00;0.00;;;;;8.94;86.58;97639.78;5077898;28;8841;-58
2024/01/02 07:16:09;;;;;;;;;0.00;0.00;;;;;8.97;86.46;97636.78;5076965;28;8835;-58
2024/01/02 07:18:37;;;;;;;;;0.00;0.00;;;;;8.98;86.02;97654.34;5077598;28;8820;-56
2024/01/02 07:21:05;;;;;;;;;0.00;0.00;;;;;9.00;86.33;97641.75;5076800;28;8844;-57
2024/01/02 07:23:37;;;;;;;;;0.00;0.00;;;;;9.01;86.38;97635.47;5086342;28;8806;-58
2024/01/02 07:26:06;;;;;;;;;0.00;0.00;;;;;9.04;86.32;97627.13;5097744;28;8832;-56
2024/01/02 07:28:33;;;;;;;;;0.00;0.00;;;;;9.08;86.31;97647.06;5097622;28;8845;-58
2024/01/02 07:31:01;;;;;;;;;0.00;0.00;;;;;9.10;86.12;97647.72;5096702;28;8806;-58
2024/01/02 07:33:29;;;;;;;;;0.00;0.00;;;;;9.13;86.03;97639.38;5117349;28;8970;-56
2024/01/02 07:35:57;;;;;;;;;0.00;0.00;;;;;9.15;85.98;97650.69;5097597;28;8818;-58
2024/01/02 07:38:26;;;;;;;;;0.00;0.00;;;;;9.18;85.98;97658.31;5096370;28;8822;-56
2024/01/02 07:40:54;;;;;;;;;0.00;0.00;;;;;9.21;86.17;97660.66;5099523;28;8834;-57
2024/01/02 07:43:21;;;;;;;;;0.00;0.00;;;;;9.26;86.00;97658.28;5095783;28;8926;-58
2024/01/02 07:45:49;;;;;;;;;0.00;0.00;;;;;9.30;85.96;97658.78;5096104;28;8946;-58
2024/01/02 07:48:17;;;;;;;;;0.00;0.00;;;;;9.36;85.78;97653.63;5099005;28;8822;-59
2024/01/02 07:50:45;;;;;;;;;0.00;0.00;;;;;9.42;85.94;97662.75;5094694;28;9636;-58
2024/01/02 07:53:19;;;;;;;;;0.00;0.00;;;;;9.46;86.24;97666.69;5094625;28;8830;-58
2024/01/02 07:55:47;;;;;;;;;0.00;0.00;;;;;9.51;86.38;97672.34;5097621;28;8947;-58
2024/01/02 07:58:15;;;;;;;;;0.00;0.00;;;;;9.56;86.27;97665.50;5074463;28;8846;-57
2024/01/02 08:00:43;;;;;;;;;0.00;0.00;;;;;9.61;86.31;97676.44;5092677;28;8831;-57
2024/01/02 08:03:10;;;;;;;;;0.00;0.00;;;;;9.65;85.53;97679.59;5116745;28;9584;-57
2024/01/02 08:05:39;;;;;;;;;0.00;0.00;;;;;9.69;86.00;97665.78;5117023;28;8819;-58
2024/01/02 08:08:07;;;;;;;;;0.00;0.00;;;;;9.74;85.80;97663.44;5116375;28;8970;-58
2024/01/02 08:10:35;;;;;;;;;0.00;0.00;;;;;9.80;86.38;97670.72;5116345;28;8851;-58
2024/01/02 08:13:03;;;;;;;;;0.00;0.00;;;;;9.85;85.57;97668.38;5102286;28;8850;-57
2024/01/02 08:15:31;;;;;;;;;0.00;0.00;;;;;9.90;85.57;97668.69;5076300;28;8834;-59
2024/01/02 08:18:08;;;;;;;;;0.00;0.00;;;;;9.95;85.89;97682.28;5076341;28;8963;-58
2024/01/02 08:20:37;;;;;;;;;0.00;0.00;;;;;10.00;85.57;97679.94;5075131;28;8844;-57
2024/01/02 08:23:05;;;;;;;;;0.00;0.00;;;;;10.05;85.15;97679.44;5075382;28;8840;-59
2024/01/02 08:25:33;;;;;;;;;0.00;0.00;;;;;10.11;85.65;97673.44;5075257;28;8820;-57
2024/01/02 08:28:01;;;;;;;;;0.00;0.00;;;;;10.15;85.56;97677.38;5075802;28;8854;-59
2024/01/02 08:30:29;;;;;;;;;0.00;0.00;;;;;10.20;85.33;97681.19;5075909;28;8844;-59
2024/01/02 08:32:56;;;;;;;;;0.00;0.00;;;;;10.25;85.20;97684.13;5074647;28;8828;-59
2024/01/02 08:35:24;;;;;;;;;0.00;0.00;;;;;10.33;85.40;97689.41;5074582;28;8852;-59
2024/01/02 08:37:52;;;;;;;;;0.00;0.00;;;;;10.38;85.57;97696.84;5074480;28;8832;-57
2024/01/02 08:40:20;;;;;;;;;0.00;0.00;;;;;10.42;85.05;97700.84;5074686;28;8820;-60
2024/01/02 08:42:48;;;;;;;;;0.50;0.00;;;;;10.45;85.00;97701.31;5075607;28;9513;-59
2024/01/02 08:45:16;;;;;;;;;0.00;0.00;;;;;10.47;84.99;97720.59;5075684;28;8836;-59
2024/01/02 08:47:43;;;;;;;;;0.00;0.00;;;;;10.52;85.32;97710.25;5076360;28;8828;-59
2024/01/02 08:50:11;;;;;;;;;0.00;0.00;;;;;10.58;85.57;97716.69;5091486;28;8884;-59
2024/01/02 08:52:39;;;;;;;;;0.00;0.00;;;;;10.63;85.37;97711.69;5095994;28;8829;-60
2024/01/02 08:55:08;;;;;;;;;0.00;0.00;;;;;10.69;85.25;97709.13;5095561;28;8942;-60
2024/01/02 08:57:36;;;;;;;;;0.00;0.00;;;;;10.73;85.03;97721.09;5095858;28;8964;-60
2024/01/02 09:00:04;;;;;;;;;0.00;0.00;;;;;10.77;85.28;97713.56;5097415;28;8816;-59
2024/01/02 09:02:32;;;;;;;;;0.00;0.00;;;;;10.79;85.46;97725.72;5105503;28;8800;-59
2024/01/02 09:05:00;;;;;;;;;0.00;0.00;;;;;10.82;85.13;97721.84;5093056;28;9673;-59
2024/01/02 09:07:28;;;;;;;;;0.00;0.00;;;;;10.86;85.31;97723.97;5110006;28;8808;-59
2024/01/02 09:09:56;;;;;;;;;0.00;0.00;;;;;10.88;85.15;97729.97;5114204;28;8847;-59
2024/01/02 09:12:23;;;;;;;;;0.00;0.00;;;;;10.91;85.31;97729.59;5115616;28;8909;-59
2024/01/02 09:14:51;;;;;;;;;0.00;0.00;;;;;10.94;85.27;97734.53;5115789;28;8848;-59
2024/01/02 09:17:19;;;;;;;;;0.00;0.00;;;;;10.96;85.44;97748.53;5115170;28;8836;-60
2024/01/02 09:19:47;;;;;;;;;0.00;0.00;;;;;10.97;85.60;97739.53;5095095;28;8818;-59
2024/01/02 09:22:15;;;;;;;;;0.00;0.00;;;;;10.99;85.89;97748.16;5080876;28;8852;-59
2024/01/02 09:24:43;;;;;;;;;0.00;0.00;;;;;11.02;85.77;97736.34;5074764;28;9750;-59
2024/01/02 09:27:12;;;;;;;;;0.00;0.00;;;;;11.06;85.58;97738.47;5074679;28;8836;-60
2024/01/02 09:29:40;;;;;;;;;0.00;0.00;;;;;11.10;85.01;97730.94;5074022;28;8847;-59
2024/01/02 09:32:10;;;;;;;;;0.00;0.00;;;;;11.15;85.34;97739.22;5073561;28;8858;-57
2024/01/02 09:34:38;;;;;;;;;0.00;0.00;;;;;11.18;85.58;97736.19;5073403;28;8832;-58
2024/01/02 09:37:07;;;;;;;;;0.00;0.00;;;;;11.19;85.63;97746.69;5073672;28;8870;-59
2024/01/02 09:39:34;;;;;;;;;0.00;0.00;;;;;11.19;85.41;97730.69;5079895;28;8951;-58
2024/01/02 09:42:02;;;;;;;;;0.00;0.00;;;;;11.21;85.30;97741.19;5080351;28;8854;-58
2024/01/02 09:44:30;;;;;;;;;0.00;0.00;;;;;11.21;85.40;97731.34;5081196;28;8923;-58
2024/01/02 09:46:58;;;;;;;;;0.00;0.00;;;;;11.23;85.32;97731.16;5082036;28;8816;-57
2024/01/02 09:49:25;;;;;;;;;0.00;0.00;;;;;11.24;85.34;97744.28;5081998;28;8825;-58
2024/01/02 09:51:53;;;;;;;;;0.00;0.00;;;;;11.25;85.86;97729.97;5080845;28;8820;-57
2024/01/02 09:54:21;;;;;;;;;0.00;0.00;;;;;11.28;85.42;97731.44;5084108;28;8830;-59
2024/01/02 09:56:51;;;;;;;;;0.00;0.00;;;;;11.29;85.81;97722.47;5101293;28;8818;-57
2024/01/02 09:59:22;;;;;;;;;0.00;0.00;;;;;11.32;85.08;97716.75;5101323;28;8828;-57
2024/01/02 10:01:50;;;;;;;;;0.00;0.00;;;;;11.33;85.46;97723.75;5100370;28;8826;-57
2024/01/02 10:04:18;;;;;;;;;0.00;0.00;;;;;11.34;85.50;97720.91;5100894;28;8829;-57
2024/01/02 10:06:44;;;;;;;;;0.00;0.00;;;;;11.36;85.69;97724.19;5100537;28;8899;-58
2024/01/02 10:09:12;;;;;;;;;0.00;0.00;;;;;11.38;85.33;97718.69;5101723;28;8841;-56
2024/01/02 10:11:40;;;;;;;;;0.00;0.00;;;;;11.37;85.64;97709.88;5102867;28;8824;-58
2024/01/02 10:14:08;;;;;;;;;0.00;0.00;;;;;11.38;85.08;97705.38;5098442;28;8822;-59
2024/01/02 10:16:36;;;;;;;;;0.00;0.00;;;;;11.37;85.44;97703.72;5100801;28;8809;-56
2024/01/02 10:19:04;;;;;;;;;0.00;0.00;;;;;11.37;85.10;97704.53;5101602;28;8858;-58
2024/01/02 10:21:32;;;;;;;;;0.00;0.00;;;;;11.38;85.45;97700.06;5100923;28;8814;-58
2024/01/02 10:24:00;;;;;;;;;0.00;0.00;;;;;11.36;85.41;97689.56;5099922;28;8846;-56
2024/01/02 10:26:30;;;;;;;;;0.00;0.00;;;;;11.36;85.03;97697.56;5100920;28;8922;-58
2024/01/02 10:28:58;;;;;;;;;0.75;0.25;;;;;11.36;85.51;97699.41;5100311;28;8826;-57
2024/01/02 10:31:26;;;;;;;;;0.00;0.00;;;;;11.35;85.17;97693.25;5100732;28;8826;-58
2024/01/02 10:33:54;;;;;;;;;0.00;0.00;;;;;11.35;85.82;97690.56;5099368;28;8832;-56
2024/01/02 10:36:22;;;;;;;;;1.00;1.00;;;;;11.37;85.69;97682.41;5100683;28;8830;-56
2024/01/02 10:38:50;;;;;;;;;0.25;0.25;;;;;11.39;85.69;97685.72;5099934;28;8814;-57
2024/01/02 10:41:18;;;;;;;;;3.00;2.50;;;;;11.40;85.79;97679.38;5100345;28;8902;-58
2024/01/02 10:43:46;;;;;;;;;0.25;0.25;;;;;11.44;85.81;97686.00;5104180;28;8869;-57
2024/01/02 10:46:14;;;;;;;;;2.50;1.00;;;;;11.45;86.22;97675.13;5099270;28;8826;-55
2024/01/02 10:48:42;;;;;;;;;0.00;0.00;;;;;11.49;85.41;97676.44;5103358;28;8888;-55
2024/01/02 10:51:10;;;;;;;;;0.50;0.50;;;;;11.52;85.47;97681.41;5111730;28;8865;-57
2024/01/02 10:53:38;;;;;;;;;1.00;1.00;;;;;11.55;85.56;97678.38;5114667;28;8812;-57
2024/01/02 10:56:07;;;;;;;;;1.00;1.00;;;;;11.55;85.78;97678.38;5096506;28;8846;-57
2024/01/02 10:58:35;;;;;;;;;1.00;1.00;;;;;11.54;85.81;97675.91;5096151;28;8834;-58
2024/01/02 11:01:03;;;;;;;;;1.00;1.00;;;;;11.53;85.72;97676.91;5095902;28;8837;-58
2024/01/02 11:03:32;;;;;;;;;0.00;0.00;;;;;11.54;85.66;97679.38;5089700;28;8930;-58
2024/01/02 11:05:59;;;;;;;;;0.00;0.00;;;;;11.57;85.61;97676.34;5083091;28;8830;-56
2024/01/02 11:08:27;;;;;;;;;0.00;0.00;;;;;11.61;85.66;97669.66;5116786;28;8950;-57
2024/01/02 11:10:55;;;;;;;;;1.00;1.00;;;;;11.66;85.75;97667.28;5117437;28;8953;-56
2024/01/02 11:13:23;;;;;;;;;3.25;3.25;;;;;11.70;85.36;97673.91;5117611;28;8859;-58
2024/01/02 11:15:51;;;;;;;;;1.00;1.00;;;;;11.74;85.93;97672.50;5118014;28;8844;-58
2024/01/02 11:18:19;;;;;;;;;1.00;0.50;;;;;11.78;85.14;97660.47;5117382;28;8831;-58
2024/01/02 11:20:47;;;;;;;;;1.00;1.00;;;;;11.83;85.55;97659.91;5098218;28;8847;-57
2024/01/02 11:23:15;;;;;;;;;0.75;0.75;;;;;11.85;85.35;97649.88;5077616;28;8832;-58
2024/01/02 11:25:44;;;;;;;;;0.00;0.00;;;;;11.86;84.72;97647.03;5077408;28;8828;-58
2024/01/02 11:28:17;;;;;;;;;0.25;0.25;;;;;11.88;85.10;97628.16;5077220;28;8816;-58
2024/01/02 11:30:49;;;;;;;;;2.00;1.00;;;;;11.88;85.20;97622.84;5076671;28;8832;-58
2024/01/02 11:33:17;;;;;;;;;0.00;0.00;;;;;11.90;84.74;97615.50;5075867;28;8860;-58
2024/01/02 11:35:45;;;;;;;;;6.00;5.50;;;;;11.91;85.36;97623.28;5076652;28;8875;-56
2024/01/02 11:38:14;;;;;;;;;3.00;3.00;;;;;11.92;84.91;97619.63;5075921;28;8828;-58
2024/01/02 11:40:41;;;;;;;;;3.00;2.00;;;;;11.96;84.92;97612.91;5075896;28;8836;-56
2024/01/02 11:43:09;;;;;;;;;1.00;1.00;;;;;11.97;84.87;97601.22;5085219;28;8869;-57
2024/01/02 11:45:38;;;;;;;;;2.50;2.50;;;;;11.99;84.68;97607.16;5096920;28;9516;-58
2024/01/02 11:48:06;;;;;;;;;0.00;0.00;;;;;12.01;84.67;97602.50;5096471;28;8841;-57
2024/01/02 11:50:34;;;;;;;;;0.00;0.00;;;;;12.01;84.57;97610.50;5093798;28;8829;-57
2024/01/02 11:53:02;;;;;;;;;0.00;0.00;;;;;12.02;84.45;97614.81;5093741;28;8826;-57